sensor_id;sensor_type;location;lat;lon;timestamp;pressure;altitude;pressure_sealevel;temperature;humidity
6032;BME280;3044;43.232;27.972;2023-02-04T00:00:20;45205.22;;;-143.84;68.00
6032;BME280;3044;43.232;27.972;2023-02-04T00:02:48;45224.25;;;-143.84;68.89
6032;BME280;3044;43.232;27.972;2023-02-04T00:05:16;45228.06;;;-143.84;69.74
6032;BME280;3044;43.232;27.972;2023-02-04T00:07:44;45207.13;;;-143.84;69.84
6032;BME280;3044;43.232;27.972;2023-02-04T00:10:12;45195.69;;;-143.84;69.65
6032;BME280;3044;43.232;27.972;2023-02-04T00:12:39;45229.97;;;-143.84;68.92
6032;BME280;3044;43.232;27.972;2023-02-04T00:15:07;45220.44;;;-143.84;67.55
6032;BME280;3044;43.232;27.972;2023-02-04T00:17:35;45214.72;;;-143.84;67.81
6032;BME280;3044;43.232;27.972;2023-02-04T00:20:03;45205.22;;;-143.84;66.87
6032;BME280;3044;43.232;27.972;2023-02-04T00:22:30;45250.91;;;-143.84;66.67
6032;BME280;3044;43.232;27.972;2023-02-04T00:24:57;45262.34;;;-143.84;66.25
6032;BME280;3044;43.232;27.972;2023-02-04T00:27:24;45220.44;;;-143.84;65.41
6032;BME280;3044;43.232;27.972;2023-02-04T00:29:51;45258.53;;;-143.84;64.80
6032;BME280;3044;43.232;27.972;2023-02-04T00:32:20;45247.09;;;-143.84;64.62
6032;BME280;3044;43.232;27.972;2023-02-04T00:34:47;45222.34;;;-143.84;64.19
6032;BME280;3044;43.232;27.972;2023-02-04T00:37:14;45249.00;;;-143.84;63.42
6032;BME280;3044;43.232;27.972;2023-02-04T00:39:41;45260.44;;;-143.84;62.69
6032;BME280;3044;43.232;27.972;2023-02-04T00:42:09;45224.25;;;-143.84;61.98
6032;BME280;3044;43.232;27.972;2023-02-04T00:44:36;45245.19;;;-143.84;61.27
6032;BME280;3044;43.232;27.972;2023-02-04T00:47:03;45233.78;;;-143.84;60.26
6032;BME280;3044;43.232;27.972;2023-02-04T00:49:33;45256.63;;;-143.84;60.69
6032;BME280;3044;43.232;27.972;2023-02-04T00:52:00;45226.16;;;-143.84;60.61
6032;BME280;3044;43.232;27.972;2023-02-04T00:54:28;45233.78;;;-143.84;60.65
6032;BME280;3044;43.232;27.972;2023-02-04T00:56:55;45222.34;;;-143.84;61.00
6032;BME280;3044;43.232;27.972;2023-02-04T00:59:22;45199.50;;;-143.84;61.18
6032;BME280;3044;43.232;27.972;2023-02-04T01:01:49;45209.03;;;-143.84;60.13
6032;BME280;3044;43.232;27.972;2023-02-04T01:04:17;45237.59;;;-143.84;60.41
6032;BME280;3044;43.232;27.972;2023-02-04T01:06:45;45256.63;;;-143.84;60.18
6032;BME280;3044;43.232;27.972;2023-02-04T01:09:12;45228.06;;;-143.84;60.60
6032;BME280;3044;43.232;27.972;2023-02-04T01:11:40;45216.63;;;-143.84;60.52
6032;BME280;3044;43.232;27.972;2023-02-04T01:14:07;45235.69;;;-143.84;60.41
6032;BME280;3044;43.232;27.972;2023-02-04T01:16:34;45210.94;;;-143.84;60.44
6032;BME280;3044;43.232;27.972;2023-02-04T01:19:01;45243.31;;;-143.84;59.75
6032;BME280;3044;43.232;27.972;2023-02-04T01:21:28;45203.31;;;-143.84;59.26
6032;BME280;3044;43.232;27.972;2023-02-04T01:23:56;45233.78;;;-143.84;59.58
6032;BME280;3044;43.232;27.972;2023-02-04T01:26:24;45214.72;;;-143.84;59.55
6032;BME280;3044;43.232;27.972;2023-02-04T01:28:51;45201.41;;;-143.84;59.89
6032;BME280;3044;43.232;27.972;2023-02-04T01:31:18;45199.50;;;-143.84;59.66
6032;BME280;3044;43.232;27.972;2023-02-04T01:33:45;45203.31;;;-143.84;59.34
6032;BME280;3044;43.232;27.972;2023-02-04T01:36:12;45220.44;;;-143.84;58.48
6032;BME280;3044;43.232;27.972;2023-02-04T01:38:39;45214.72;;;-143.84;59.01
6032;BME280;3044;43.232;27.972;2023-02-04T01:41:08;45214.72;;;-143.84;58.35
6032;BME280;3044;43.232;27.972;2023-02-04T01:43:35;45212.84;;;-143.84;58.57
6032;BME280;3044;43.232;27.972;2023-02-04T01:46:02;45205.22;;;-143.84;58.08
6032;BME280;3044;43.232;27.972;2023-02-04T01:48:30;45229.97;;;-143.84;58.38
6032;BME280;3044;43.232;27.972;2023-02-04T01:51:02;45229.97;;;-143.84;59.15
6032;BME280;3044;43.232;27.972;2023-02-04T01:53:30;45220.44;;;-143.84;58.93
6032;BME280;3044;43.232;27.972;2023-02-04T01:55:58;45214.72;;;-143.84;59.25
6032;BME280;3044;43.232;27.972;2023-02-04T01:58:28;45237.59;;;-143.84;58.69
6032;BME280;3044;43.232;27.972;2023-02-04T02:00:56;45203.31;;;-143.84;58.71
6032;BME280;3044;43.232;27.972;2023-02-04T02:03:23;45205.22;;;-143.84;58.73
6032;BME280;3044;43.232;27.972;2023-02-04T02:05:52;45220.44;;;-143.84;58.95
6032;BME280;3044;43.232;27.972;2023-02-04T02:08:21;45235.69;;;-143.84;58.57
6032;BME280;3044;43.232;27.972;2023-02-04T02:10:49;45203.31;;;-143.84;58.54
6032;BME280;3044;43.232;27.972;2023-02-04T02:13:18;45214.72;;;-143.84;58.22
6032;BME280;3044;43.232;27.972;2023-02-04T02:15:47;45210.94;;;-143.84;58.95
6032;BME280;3044;43.232;27.972;2023-02-04T02:18:14;45241.41;;;-143.84;58.56
6032;BME280;3044;43.232;27.972;2023-02-04T02:20:42;45197.59;;;-143.84;58.66
6032;BME280;3044;43.232;27.972;2023-02-04T02:23:15;45231.88;;;-143.84;58.24
6032;BME280;3044;43.232;27.972;2023-02-04T02:25:46;45214.72;;;-143.84;58.19
6032;BME280;3044;43.232;27.972;2023-02-04T02:28:16;45229.97;;;-143.84;58.47
6032;BME280;3044;43.232;27.972;2023-02-04T02:30:44;45224.25;;;-143.84;58.33
6032;BME280;3044;43.232;27.972;2023-02-04T02:33:15;45229.97;;;-143.84;58.10
6032;BME280;3044;43.232;27.972;2023-02-04T02:35:45;45220.44;;;-143.84;57.90
6032;BME280;3044;43.232;27.972;2023-02-04T02:38:13;45224.25;;;-143.84;58.07
6032;BME280;3044;43.232;27.972;2023-02-04T02:40:41;45212.84;;;-143.84;58.25
6032;BME280;3044;43.232;27.972;2023-02-04T02:43:14;45216.63;;;-143.84;58.19
6032;BME280;3044;43.232;27.972;2023-02-04T02:45:42;45212.84;;;-143.84;58.73
6032;BME280;3044;43.232;27.972;2023-02-04T02:48:10;45226.16;;;-143.84;58.72
6032;BME280;3044;43.232;27.972;2023-02-04T02:50:37;45222.34;;;-143.84;58.47
6032;BME280;3044;43.232;27.972;2023-02-04T02:53:09;45226.16;;;-143.84;58.88
6032;BME280;3044;43.232;27.972;2023-02-04T02:55:37;45241.41;;;-143.84;58.94
6032;BME280;3044;43.232;27.972;2023-02-04T02:58:11;45239.50;;;-143.84;59.38
6032;BME280;3044;43.232;27.972;2023-02-04T03:00:41;45218.53;;;-143.84;59.37
6032;BME280;3044;43.232;27.972;2023-02-04T03:03:11;45201.41;;;-143.84;59.82
6032;BME280;3044;43.232;27.972;2023-02-04T03:05:41;45247.09;;;-143.84;61.58
6032;BME280;3044;43.232;27.972;2023-02-04T03:08:09;45216.63;;;-143.84;62.02
6032;BME280;3044;43.232;27.972;2023-02-04T03:10:38;45214.72;;;-143.84;61.94
6032;BME280;3044;43.232;27.972;2023-02-04T03:13:05;45216.63;;;-143.84;63.11
6032;BME280;3044;43.232;27.972;2023-02-04T03:15:34;45239.50;;;-143.84;65.26
6032;BME280;3044;43.232;27.972;2023-02-04T03:18:01;45250.91;;;-143.84;65.57
6032;BME280;3044;43.232;27.972;2023-02-04T03:20:30;45224.25;;;-143.84;64.71
6032;BME280;3044;43.232;27.972;2023-02-04T03:22:57;45218.53;;;-143.84;63.79
6032;BME280;3044;43.232;27.972;2023-02-04T03:25:25;45231.88;;;-143.84;63.11
6032;BME280;3044;43.232;27.972;2023-02-04T03:27:54;45207.13;;;-143.84;64.03
6032;BME280;3044;43.232;27.972;2023-02-04T03:30:22;45216.63;;;-143.84;65.13
6032;BME280;3044;43.232;27.972;2023-02-04T03:32:50;45189.97;;;-143.84;65.38
6032;BME280;3044;43.232;27.972;2023-02-04T03:35:18;45237.59;;;-143.84;65.94
6032;BME280;3044;43.232;27.972;2023-02-04T03:37:45;45205.22;;;-143.84;66.86
6032;BME280;3044;43.232;27.972;2023-02-04T03:40:12;45216.63;;;-143.84;67.86
6032;BME280;3044;43.232;27.972;2023-02-04T03:42:39;45205.22;;;-143.84;68.50
6032;BME280;3044;43.232;27.972;2023-02-04T03:45:07;45235.69;;;-143.84;69.38
6032;BME280;3044;43.232;27.972;2023-02-04T03:47:34;45231.88;;;-143.84;70.03
6032;BME280;3044;43.232;27.972;2023-02-04T03:50:04;45228.06;;;-143.84;70.61
6032;BME280;3044;43.232;27.972;2023-02-04T03:52:31;45237.59;;;-143.84;70.98
6032;BME280;3044;43.232;27.972;2023-02-04T03:54:58;45220.44;;;-143.84;71.28
6032;BME280;3044;43.232;27.972;2023-02-04T03:57:26;45214.72;;;-143.84;72.47
6032;BME280;3044;43.232;27.972;2023-02-04T03:59:53;45212.84;;;-143.84;73.36
6032;BME280;3044;43.232;27.972;2023-02-04T04:02:20;45220.44;;;-143.84;74.25
6032;BME280;3044;43.232;27.972;2023-02-04T04:04:47;45228.06;;;-143.84;75.53
6032;BME280;3044;43.232;27.972;2023-02-04T04:07:15;45209.03;;;-143.84;76.14
6032;BME280;3044;43.232;27.972;2023-02-04T04:09:43;45216.63;;;-143.84;77.42
6032;BME280;3044;43.232;27.972;2023-02-04T04:12:10;45209.03;;;-143.84;78.11
6032;BME280;3044;43.232;27.972;2023-02-04T04:14:37;45193.78;;;-143.84;78.82
6032;BME280;3044;43.232;27.972;2023-02-04T04:17:04;45188.06;;;-143.84;80.27
6032;BME280;3044;43.232;27.972;2023-02-04T04:19:31;45169.03;;;-143.84;81.01
6032;BME280;3044;43.232;27.972;2023-02-04T04:21:58;45176.66;;;-143.84;81.29
6032;BME280;3044;43.232;27.972;2023-02-04T04:24:27;45178.56;;;-143.84;82.16
6032;BME280;3044;43.232;27.972;2023-02-04T04:26:54;45157.59;;;-143.84;82.52
6032;BME280;3044;43.232;27.972;2023-02-04T04:29:21;45121.44;;;-143.84;82.31
6032;BME280;3044;43.232;27.972;2023-02-04T04:31:48;45108.09;;;-143.84;82.83
6032;BME280;3044;43.232;27.972;2023-02-04T04:34:15;45136.66;;;-143.84;83.20
6032;BME280;3044;43.232;27.972;2023-02-04T04:36:42;45075.72;;;-143.84;83.35
6032;BME280;3044;43.232;27.972;2023-02-04T04:39:09;45083.34;;;-143.84;83.04
6032;BME280;3044;43.232;27.972;2023-02-04T04:41:38;45056.69;;;-143.84;83.04
6032;BME280;3044;43.232;27.972;2023-02-04T04:44:05;45106.19;;;-143.84;82.98
6032;BME280;3044;43.232;27.972;2023-02-04T04:46:33;45075.72;;;-143.84;83.18
6032;BME280;3044;43.232;27.972;2023-02-04T04:49:00;45115.72;;;-143.84;82.64
6032;BME280;3044;43.232;27.972;2023-02-04T04:51:27;45104.28;;;-143.84;82.96
6032;BME280;3044;43.232;27.972;2023-02-04T04:53:56;45125.22;;;-143.84;82.60
6032;BME280;3044;43.232;27.972;2023-02-04T04:56:24;45129.03;;;-143.84;82.36
6032;BME280;3044;43.232;27.972;2023-02-04T04:58:53;45110.00;;;-143.84;82.44
6032;BME280;3044;43.232;27.972;2023-02-04T05:01:20;45119.53;;;-143.84;81.75
6032;BME280;3044;43.232;27.972;2023-02-04T05:03:47;45165.22;;;-143.84;81.88
6032;BME280;3044;43.232;27.972;2023-02-04T05:06:15;45136.66;;;-143.84;82.24
6032;BME280;3044;43.232;27.972;2023-02-04T05:08:42;45132.84;;;-143.84;82.70
6032;BME280;3044;43.232;27.972;2023-02-04T05:11:09;45111.91;;;-143.84;82.29
6032;BME280;3044;43.232;27.972;2023-02-04T05:13:36;45117.63;;;-143.84;82.89
6032;BME280;3044;43.232;27.972;2023-02-04T05:16:05;45106.19;;;-143.84;83.13
6032;BME280;3044;43.232;27.972;2023-02-04T05:18:32;45079.53;;;-143.84;83.34
6032;BME280;3044;43.232;27.972;2023-02-04T05:20:59;45066.22;;;-143.84;83.66
6032;BME280;3044;43.232;27.972;2023-02-04T05:23:26;45052.88;;;-143.84;83.90
6032;BME280;3044;43.232;27.972;2023-02-04T05:25:54;45030.03;;;-143.84;84.16
6032;BME280;3044;43.232;27.972;2023-02-04T05:28:21;45016.69;;;-143.84;84.81
6032;BME280;3044;43.232;27.972;2023-02-04T05:30:48;44967.19;;;-143.84;84.77
6032;BME280;3044;43.232;27.972;2023-02-04T05:33:16;44976.72;;;-143.84;84.98
6032;BME280;3044;43.232;27.972;2023-02-04T05:35:43;44963.38;;;-143.84;85.00
6032;BME280;3044;43.232;27.972;2023-02-04T05:38:11;44942.44;;;-143.84;85.23
6032;BME280;3044;43.232;27.972;2023-02-04T05:40:38;44911.97;;;-143.84;85.42
6032;BME280;3044;43.232;27.972;2023-02-04T05:43:05;44919.59;;;-143.84;85.57
6032;BME280;3044;43.232;27.972;2023-02-04T05:45:32;44830.09;;;-143.84;86.17
6032;BME280;3044;43.232;27.972;2023-02-04T05:47:59;44795.81;;;-143.84;85.71
6032;BME280;3044;43.232;27.972;2023-02-04T05:50:28;44649.22;;;-143.84;86.88
6032;BME280;3044;43.232;27.972;2023-02-04T05:52:55;44544.50;;;-143.84;87.08
6032;BME280;3044;43.232;27.972;2023-02-04T05:55:22;44356.03;;;-143.84;87.45
6032;BME280;3044;43.232;27.972;2023-02-04T05:57:49;44220.84;;;-143.84;88.05
6032;BME280;3044;43.232;27.972;2023-02-04T06:00:17;44091.41;;;-143.84;88.30
6032;BME280;3044;43.232;27.972;2023-02-04T06:02:44;44011.47;;;-143.84;88.87
6032;BME280;3044;43.232;27.972;2023-02-04T06:05:11;43937.22;;;-143.84;89.13
6032;BME280;3044;43.232;27.972;2023-02-04T06:07:39;43853.47;;;-143.84;89.28
6032;BME280;3044;43.232;27.972;2023-02-04T06:10:08;43866.78;;;-143.84;90.36
6032;BME280;3044;43.232;27.972;2023-02-04T06:12:35;43830.63;;;-143.84;90.38
6032;BME280;3044;43.232;27.972;2023-02-04T06:15:02;43813.50;;;-143.84;90.63
6032;BME280;3044;43.232;27.972;2023-02-04T06:17:30;43866.78;;;-143.84;90.29
6032;BME280;3044;43.232;27.972;2023-02-04T06:19:57;43823.00;;;-143.84;90.61
6032;BME280;3044;43.232;27.972;2023-02-04T06:22:24;43853.47;;;-143.84;91.19
6032;BME280;3044;43.232;27.972;2023-02-04T06:24:52;43834.44;;;-143.84;91.05
6032;BME280;3044;43.232;27.972;2023-02-04T06:27:20;43872.50;;;-143.84;90.86
6032;BME280;3044;43.232;27.972;2023-02-04T06:29:48;43840.13;;;-143.84;91.31
6032;BME280;3044;43.232;27.972;2023-02-04T06:32:16;43861.06;;;-143.84;90.93
6032;BME280;3044;43.232;27.972;2023-02-04T06:34:43;43861.06;;;-143.84;91.40
6032;BME280;3044;43.232;27.972;2023-02-04T06:37:11;43864.88;;;-143.84;91.34
6032;BME280;3044;43.232;27.972;2023-02-04T06:39:38;43891.53;;;-143.84;91.57
6032;BME280;3044;43.232;27.972;2023-02-04T06:42:07;43901.06;;;-143.84;91.38
6032;BME280;3044;43.232;27.972;2023-02-04T06:44:34;43882.00;;;-143.84;91.52
6032;BME280;3044;43.232;27.972;2023-02-04T06:47:01;43893.44;;;-143.84;91.77
6032;BME280;3044;43.232;27.972;2023-02-04T06:49:28;43880.13;;;-143.84;91.92
6032;BME280;3044;43.232;27.972;2023-02-04T06:51:55;43887.72;;;-143.84;92.00
6032;BME280;3044;43.232;27.972;2023-02-04T06:54:22;43887.72;;;-143.84;91.92
6032;BME280;3044;43.232;27.972;2023-02-04T06:56:50;43902.97;;;-143.84;92.27
6032;BME280;3044;43.232;27.972;2023-02-04T06:59:18;43889.63;;;-143.84;91.68
6032;BME280;3044;43.232;27.972;2023-02-04T07:01:45;43897.25;;;-143.84;91.46
6032;BME280;3044;43.232;27.972;2023-02-04T07:04:12;43893.44;;;-143.84;91.89
6032;BME280;3044;43.232;27.972;2023-02-04T07:06:40;43889.63;;;-143.84;92.12
6032;BME280;3044;43.232;27.972;2023-02-04T07:09:07;43895.34;;;-143.84;91.80
6032;BME280;3044;43.232;27.972;2023-02-04T07:11:34;43878.22;;;-143.84;92.07
6032;BME280;3044;43.232;27.972;2023-02-04T07:14:01;43891.53;;;-143.84;91.99
6032;BME280;3044;43.232;27.972;2023-02-04T07:16:30;43897.25;;;-143.84;92.10
6032;BME280;3044;43.232;27.972;2023-02-04T07:18:57;43861.06;;;-143.84;92.32
6032;BME280;3044;43.232;27.972;2023-02-04T07:21:24;43895.34;;;-143.84;92.38
6032;BME280;3044;43.232;27.972;2023-02-04T07:23:51;43899.16;;;-143.84;92.66
6032;BME280;3044;43.232;27.972;2023-02-04T07:26:19;43912.47;;;-143.84;92.63
6032;BME280;3044;43.232;27.972;2023-02-04T07:28:46;43899.16;;;-143.84;92.11
6032;BME280;3044;43.232;27.972;2023-02-04T07:31:13;43891.53;;;-143.84;92.56
6032;BME280;3044;43.232;27.972;2023-02-04T07:33:42;43895.34;;;-143.84;91.98
6032;BME280;3044;43.232;27.972;2023-02-04T07:36:09;43880.13;;;-143.84;92.29
6032;BME280;3044;43.232;27.972;2023-02-04T07:38:36;43882.00;;;-143.84;91.63
6032;BME280;3044;43.232;27.972;2023-02-04T07:41:03;43872.50;;;-143.84;91.89
6032;BME280;3044;43.232;27.972;2023-02-04T07:43:30;43859.19;;;-143.84;91.45
6032;BME280;3044;43.232;27.972;2023-02-04T07:45:57;43872.50;;;-143.84;91.35
6032;BME280;3044;43.232;27.972;2023-02-04T07:48:24;43868.69;;;-143.84;91.52
6032;BME280;3044;43.232;27.972;2023-02-04T07:50:53;43874.41;;;-143.84;91.80
6032;BME280;3044;43.232;27.972;2023-02-04T07:53:20;43874.41;;;-143.84;91.78
6032;BME280;3044;43.232;27.972;2023-02-04T07:55:47;43889.63;;;-143.84;91.15
6032;BME280;3044;43.232;27.972;2023-02-04T07:58:14;43866.78;;;-143.84;90.95
6032;BME280;3044;43.232;27.972;2023-02-04T08:00:41;43872.50;;;-143.84;91.25
6032;BME280;3044;43.232;27.972;2023-02-04T08:03:08;43891.53;;;-143.84;91.20
6032;BME280;3044;43.232;27.972;2023-02-04T08:05:36;43868.69;;;-143.84;90.98
6032;BME280;3044;43.232;27.972;2023-02-04T08:08:04;43857.28;;;-143.84;91.05
6032;BME280;3044;43.232;27.972;2023-02-04T08:10:31;43857.28;;;-143.84;91.26
6032;BME280;3044;43.232;27.972;2023-02-04T08:12:58;43853.47;;;-143.84;91.19
6032;BME280;3044;43.232;27.972;2023-02-04T08:15:25;43887.72;;;-143.84;91.49
6032;BME280;3044;43.232;27.972;2023-02-04T08:17:53;43872.50;;;-143.84;91.70
6032;BME280;3044;43.232;27.972;2023-02-04T08:20:20;43861.06;;;-143.84;91.35
6032;BME280;3044;43.232;27.972;2023-02-04T08:22:47;43853.47;;;-143.84;91.61
6032;BME280;3044;43.232;27.972;2023-02-04T08:25:16;43899.16;;;-143.84;91.48
6032;BME280;3044;43.232;27.972;2023-02-04T08:27:43;43885.81;;;-143.84;91.64
6032;BME280;3044;43.232;27.972;2023-02-04T08:30:11;43882.00;;;-143.84;91.89
6032;BME280;3044;43.232;27.972;2023-02-04T08:32:38;43902.97;;;-143.84;91.97
6032;BME280;3044;43.232;27.972;2023-02-04T08:35:06;43897.25;;;-143.84;92.27
6032;BME280;3044;43.232;27.972;2023-02-04T08:37:33;43893.44;;;-143.84;92.24
6032;BME280;3044;43.232;27.972;2023-02-04T08:40:00;43887.72;;;-143.84;91.69
6032;BME280;3044;43.232;27.972;2023-02-04T08:42:29;43906.75;;;-143.84;91.71
6032;BME280;3044;43.232;27.972;2023-02-04T08:44:56;43893.44;;;-143.84;91.98
6032;BME280;3044;43.232;27.972;2023-02-04T08:47:23;43904.84;;;-143.84;92.05
6032;BME280;3044;43.232;27.972;2023-02-04T08:49:50;43897.25;;;-143.84;91.89
6032;BME280;3044;43.232;27.972;2023-02-04T08:52:17;43891.53;;;-143.84;91.66
6032;BME280;3044;43.232;27.972;2023-02-04T08:54:45;43872.50;;;-143.84;91.66
6032;BME280;3044;43.232;27.972;2023-02-04T08:57:12;43876.31;;;-143.84;91.65
6032;BME280;3044;43.232;27.972;2023-02-04T08:59:41;43862.97;;;-143.84;91.39
6032;BME280;3044;43.232;27.972;2023-02-04T09:02:09;43883.91;;;-143.84;91.32
6032;BME280;3044;43.232;27.972;2023-02-04T09:04:37;43870.59;;;-143.84;91.10
6032;BME280;3044;43.232;27.972;2023-02-04T09:07:04;43891.53;;;-143.84;91.03
6032;BME280;3044;43.232;27.972;2023-02-04T09:09:31;43883.91;;;-143.84;91.05
6032;BME280;3044;43.232;27.972;2023-02-04T09:11:58;43838.25;;;-143.84;90.38
6032;BME280;3044;43.232;27.972;2023-02-04T09:14:26;43845.84;;;-143.84;90.88
6032;BME280;3044;43.232;27.972;2023-02-04T09:16:55;43843.94;;;-143.84;90.77
6032;BME280;3044;43.232;27.972;2023-02-04T09:19:22;43855.38;;;-143.84;90.92
6032;BME280;3044;43.232;27.972;2023-02-04T09:21:50;43843.94;;;-143.84;90.75
6032;BME280;3044;43.232;27.972;2023-02-04T09:24:17;43864.88;;;-143.84;90.75
6032;BME280;3044;43.232;27.972;2023-02-04T09:26:48;43832.53;;;-143.84;90.79
6032;BME280;3044;43.232;27.972;2023-02-04T09:29:15;43851.56;;;-143.84;90.83
6032;BME280;3044;43.232;27.972;2023-02-04T09:31:42;43849.66;;;-143.84;90.69
6032;BME280;3044;43.232;27.972;2023-02-04T09:34:11;43823.00;;;-143.84;90.78
6032;BME280;3044;43.232;27.972;2023-02-04T09:36:38;43870.59;;;-143.84;91.46
6032;BME280;3044;43.232;27.972;2023-02-04T09:39:05;43887.72;;;-143.84;91.40
6032;BME280;3044;43.232;27.972;2023-02-04T09:41:34;43889.63;;;-143.84;91.47
6032;BME280;3044;43.232;27.972;2023-02-04T09:44:03;43855.38;;;-143.84;91.00
6032;BME280;3044;43.232;27.972;2023-02-04T09:46:34;43885.81;;;-143.84;91.55
6032;BME280;3044;43.232;27.972;2023-02-04T09:49:01;43874.41;;;-143.84;92.07
6032;BME280;3044;43.232;27.972;2023-02-04T09:51:32;43920.09;;;-143.84;92.77
6032;BME280;3044;43.232;27.972;2023-02-04T09:54:06;43872.50;;;-143.84;90.72
6032;BME280;3044;43.232;27.972;2023-02-04T09:56:34;43880.13;;;-143.84;91.16
6032;BME280;3044;43.232;27.972;2023-02-04T09:59:03;43840.13;;;-143.84;90.27
6032;BME280;3044;43.232;27.972;2023-02-04T10:01:30;43864.88;;;-143.84;88.50
6032;BME280;3044;43.232;27.972;2023-02-04T10:04:00;43887.72;;;-143.84;88.39
6032;BME280;3044;43.232;27.972;2023-02-04T10:06:28;43937.22;;;-143.84;88.03
6032;BME280;3044;43.232;27.972;2023-02-04T10:08:59;44594.00;;;-143.84;85.74
6032;BME280;3044;43.232;27.972;2023-02-04T10:11:26;44675.88;;;-143.84;85.23
6032;BME280;3044;43.232;27.972;2023-02-04T10:13:58;44531.19;;;-143.84;85.63
6032;BME280;3044;43.232;27.972;2023-02-04T10:16:27;44401.72;;;-143.84;86.45
6032;BME280;3044;43.232;27.972;2023-02-04T10:18:56;44479.78;;;-143.84;85.91
6032;BME280;3044;43.232;27.972;2023-02-04T10:21:26;44418.84;;;-143.84;85.85
6032;BME280;3044;43.232;27.972;2023-02-04T10:23:55;45031.94;;;-143.84;82.60
6032;BME280;3044;43.232;27.972;2023-02-04T10:26:25;45060.50;;;-143.84;81.70
6032;BME280;3044;43.232;27.972;2023-02-04T10:29:00;45096.66;;;-143.84;81.24
6032;BME280;3044;43.232;27.972;2023-02-04T10:31:35;45153.81;;;-143.84;79.93
6032;BME280;3044;43.232;27.972;2023-02-04T10:34:04;45121.44;;;-143.84;79.98
6032;BME280;3044;43.232;27.972;2023-02-04T10:36:32;45146.19;;;-143.84;79.85
6032;BME280;3044;43.232;27.972;2023-02-04T10:38:59;45104.28;;;-143.84;79.44
6032;BME280;3044;43.232;27.972;2023-02-04T10:41:28;45144.28;;;-143.84;79.67
6032;BME280;3044;43.232;27.972;2023-02-04T10:44:04;45148.09;;;-143.84;78.62
6032;BME280;3044;43.232;27.972;2023-02-04T10:46:32;45167.13;;;-143.84;78.72
6032;BME280;3044;43.232;27.972;2023-02-04T10:48:59;45148.09;;;-143.84;77.09
6032;BME280;3044;43.232;27.972;2023-02-04T10:51:27;45178.56;;;-143.84;77.27
6032;BME280;3044;43.232;27.972;2023-02-04T10:53:54;45172.84;;;-143.84;75.78
6032;BME280;3044;43.232;27.972;2023-02-04T10:56:40;45155.69;;;-143.84;76.35
6032;BME280;3044;43.232;27.972;2023-02-04T10:59:22;45163.31;;;-143.84;77.83
6032;BME280;3044;43.232;27.972;2023-02-04T11:01:53;45146.19;;;-143.84;76.88
6032;BME280;3044;43.232;27.972;2023-02-04T11:04:21;45150.00;;;-143.84;76.60
6032;BME280;3044;43.232;27.972;2023-02-04T11:06:49;45167.13;;;-143.84;75.87
6032;BME280;3044;43.232;27.972;2023-02-04T11:09:17;45174.75;;;-143.84;77.28
6032;BME280;3044;43.232;27.972;2023-02-04T11:11:48;45178.56;;;-143.84;76.33
6032;BME280;3044;43.232;27.972;2023-02-04T11:14:25;45170.94;;;-143.84;75.86
6032;BME280;3044;43.232;27.972;2023-02-04T11:16:53;45189.97;;;-143.84;75.92
6032;BME280;3044;43.232;27.972;2023-02-04T11:19:33;45195.69;;;-143.84;76.00
6032;BME280;3044;43.232;27.972;2023-02-04T11:22:07;45195.69;;;-143.84;76.89
6032;BME280;3044;43.232;27.972;2023-02-04T11:24:46;45174.75;;;-143.84;77.92
6032;BME280;3044;43.232;27.972;2023-02-04T11:27:22;45165.22;;;-143.84;78.62
6032;BME280;3044;43.232;27.972;2023-02-04T11:29:51;45146.19;;;-143.84;78.76
6032;BME280;3044;43.232;27.972;2023-02-04T11:32:31;45129.03;;;-143.84;79.51
6032;BME280;3044;43.232;27.972;2023-02-04T11:35:21;45155.69;;;-143.84;79.17
6032;BME280;3044;43.232;27.972;2023-02-04T11:37:49;45170.94;;;-143.84;78.11
6032;BME280;3044;43.232;27.972;2023-02-04T11:40:24;45140.47;;;-143.84;79.00
6032;BME280;3044;43.232;27.972;2023-02-04T11:42:58;45121.44;;;-143.84;79.60
6032;BME280;3044;43.232;27.972;2023-02-04T11:45:29;45155.69;;;-143.84;79.41
6032;BME280;3044;43.232;27.972;2023-02-04T11:47:58;45138.56;;;-143.84;78.43
6032;BME280;3044;43.232;27.972;2023-02-04T11:50:28;45151.91;;;-143.84;79.14
6032;BME280;3044;43.232;27.972;2023-02-04T11:52:58;45165.22;;;-143.84;77.63
6032;BME280;3044;43.232;27.972;2023-02-04T11:55:27;45159.50;;;-143.84;78.65
6032;BME280;3044;43.232;27.972;2023-02-04T11:57:57;45146.19;;;-143.84;78.99
6032;BME280;3044;43.232;27.972;2023-02-04T12:00:26;45159.50;;;-143.84;78.91
6032;BME280;3044;43.232;27.972;2023-02-04T12:02:56;45132.84;;;-143.84;78.74
6032;BME280;3044;43.232;27.972;2023-02-04T12:05:37;45159.50;;;-143.84;78.75
6032;BME280;3044;43.232;27.972;2023-02-04T12:08:10;45150.00;;;-143.84;78.60
6032;BME280;3044;43.232;27.972;2023-02-04T12:10:37;45153.81;;;-143.84;79.59
6032;BME280;3044;43.232;27.972;2023-02-04T12:13:20;45138.56;;;-143.84;78.97
6032;BME280;3044;43.232;27.972;2023-02-04T12:15:56;45155.69;;;-143.84;78.14
6032;BME280;3044;43.232;27.972;2023-02-04T12:18:23;45161.41;;;-143.84;79.31
6032;BME280;3044;43.232;27.972;2023-02-04T12:20:52;45142.38;;;-143.84;78.40
6032;BME280;3044;43.232;27.972;2023-02-04T12:23:19;45184.25;;;-143.84;77.82
6032;BME280;3044;43.232;27.972;2023-02-04T12:25:47;45182.38;;;-143.84;77.39
6032;BME280;3044;43.232;27.972;2023-02-04T12:28:15;45157.59;;;-143.84;77.54
6032;BME280;3044;43.232;27.972;2023-02-04T12:30:43;45155.69;;;-143.84;77.31
6032;BME280;3044;43.232;27.972;2023-02-04T12:33:10;45176.66;;;-143.84;77.78
6032;BME280;3044;43.232;27.972;2023-02-04T12:35:38;45169.03;;;-143.84;77.73
6032;BME280;3044;43.232;27.972;2023-02-04T12:38:05;45132.84;;;-143.84;78.51
6032;BME280;3044;43.232;27.972;2023-02-04T12:40:32;45169.03;;;-143.84;78.71
6032;BME280;3044;43.232;27.972;2023-02-04T12:42:59;45165.22;;;-143.84;77.80
6032;BME280;3044;43.232;27.972;2023-02-04T12:45:28;45163.31;;;-143.84;77.77
6032;BME280;3044;43.232;27.972;2023-02-04T12:47:55;45167.13;;;-143.84;77.58
6032;BME280;3044;43.232;27.972;2023-02-04T12:50:22;45188.06;;;-143.84;77.94
6032;BME280;3044;43.232;27.972;2023-02-04T12:52:51;45151.91;;;-143.84;77.86
6032;BME280;3044;43.232;27.972;2023-02-04T12:55:18;45176.66;;;-143.84;76.38